Time;durP1;ratioP1;P1;durP2;ratioP2;P2;SDS_P1;SDS_P2;PMS_P1;PMS_P2;Temp;Humidity;BMP_temperature;BMP_pressure;BME280_temperature;BME280_humidity;BME280_pressure;Samples;Min_cycle;Max_cycle;Signal;HPM_P1;HPM_P2
2022/12/01 00:01:29;;;;;;;11.37;5.50;;;;;;;;;;5110372;28;20209;-61
2022/12/01 00:03:57;;;;;;;8.27;4.63;;;;;;;;;;5101023;28;20202;-61
2022/12/01 00:06:24;;;;;;;8.30;4.83;;;;;;;;;;5090510;28;20234;-61
2022/12/01 00:11:37;;;;;;;7.83;5.07;;;;;;;;;;5091951;28;20252;-61
2022/12/01 00:14:04;;;;;;;15.37;4.77;;;;;;;;;;5099150;28;20206;-61
2022/12/01 00:16:32;;;;;;;10.53;4.87;;;;;;;;;;5109557;28;20202;-61
2022/12/01 00:19:00;;;;;;;9.63;4.77;;;;;;;;;;5101328;28;20288;-61
2022/12/01 00:21:28;;;;;;;10.80;4.77;;;;;;;;;;5108397;28;20205;-61
2022/12/01 00:23:56;;;;;;;11.33;5.27;;;;;;;;;;5104741;28;20197;-61
2022/12/01 00:26:23;;;;;;;10.00;4.90;;;;;;;;;;5090258;28;20220;-61
2022/12/01 00:28:50;;;;;;;12.20;5.47;;;;;;;;;;5091377;28;20227;-61
2022/12/01 00:31:18;;;;;;;10.17;4.47;;;;;;;;;;5091068;28;20194;-61
2022/12/01 00:33:45;;;;;;;10.03;5.27;;;;;;;;;;5090283;28;20228;-61
2022/12/01 00:36:13;;;;;;;11.87;4.50;;;;;;;;;;5091340;28;20221;-61
2022/12/01 00:38:40;;;;;;;8.03;4.13;;;;;;;;;;5103742;28;20202;-61
2022/12/01 00:41:07;;;;;;;13.07;5.60;;;;;;;;;;5098770;28;20205;-61
2022/12/01 00:43:34;;;;;;;11.10;5.17;;;;;;;;;;5108007;28;20225;-61
2022/12/01 00:46:02;;;;;;;9.07;4.57;;;;;;;;;;5103682;28;20694;-61
2022/12/01 00:48:29;;;;;;;11.33;4.67;;;;;;;;;;5089857;28;20684;-61
2022/12/01 00:50:56;;;;;;;9.63;5.00;;;;;;;;;;5092700;28;20666;-61
2022/12/01 00:53:24;;;;;;;7.67;4.93;;;;;;;;;;5109004;28;20209;-61
2022/12/01 00:55:52;;;;;;;8.23;5.03;;;;;;;;;;5109895;28;20239;-61
2022/12/01 00:58:20;;;;;;;11.00;5.60;;;;;;;;;;5097563;28;20204;-61
2022/12/01 01:00:47;;;;;;;10.00;4.70;;;;;;;;;;5107883;28;20209;-61
2022/12/01 01:03:14;;;;;;;13.07;5.30;;;;;;;;;;5108200;28;20205;-61
2022/12/01 01:05:42;;;;;;;12.43;5.23;;;;;;;;;;5109703;28;20240;-61
2022/12/01 01:08:10;;;;;;;9.40;5.57;;;;;;;;;;5091891;28;20206;-61
2022/12/01 01:10:39;;;;;;;12.43;5.97;;;;;;;;;;5088993;28;20222;-61
2022/12/01 01:13:07;;;;;;;9.17;4.97;;;;;;;;;;5105364;28;20698;-60
2022/12/01 01:15:34;;;;;;;10.40;5.53;;;;;;;;;;5109524;28;20216;-60
2022/12/01 01:18:01;;;;;;;19.63;6.40;;;;;;;;;;5106717;28;20216;-61
2022/12/01 01:20:29;;;;;;;12.30;5.67;;;;;;;;;;5107020;28;20194;-60
2022/12/01 01:22:56;;;;;;;10.73;4.37;;;;;;;;;;5093165;28;20574;-60
2022/12/01 01:25:23;;;;;;;13.67;6.43;;;;;;;;;;5088770;28;20206;-61
2022/12/01 01:27:51;;;;;;;13.07;6.80;;;;;;;;;;5088833;28;20217;-61
2022/12/01 01:30:19;;;;;;;18.53;7.27;;;;;;;;;;5098918;27;20228;-60
2022/12/01 01:32:46;;;;;;;19.50;6.40;;;;;;;;;;5107203;27;20204;-60
2022/12/01 01:35:13;;;;;;;9.07;5.13;;;;;;;;;;5106544;28;20209;-60
2022/12/01 01:37:40;;;;;;;14.07;6.30;;;;;;;;;;5101684;28;20238;-61
2022/12/01 01:40:07;;;;;;;16.00;7.03;;;;;;;;;;5105936;28;20197;-60
2022/12/01 01:42:35;;;;;;;17.27;6.87;;;;;;;;;;5100483;28;20220;-60
2022/12/01 01:45:04;;;;;;;11.97;6.10;;;;;;;;;;5104966;28;20220;-61
2022/12/01 01:47:32;;;;;;;13.27;5.97;;;;;;;;;;5106407;28;20205;-61
2022/12/01 01:50:04;;;;;;;21.83;6.87;;;;;;;;;;5098193;28;20231;-61
2022/12/01 01:52:32;;;;;;;13.03;6.60;;;;;;;;;;5106144;28;20639;-61
2022/12/01 01:54:59;;;;;;;16.27;6.20;;;;;;;;;;5104136;28;20737;-61
2022/12/01 01:57:27;;;;;;;14.77;6.00;;;;;;;;;;5103346;28;21008;-61
2022/12/01 01:59:56;;;;;;;17.23;6.60;;;;;;;;;;5104564;28;20225;-61
2022/12/01 02:02:25;;;;;;;15.83;7.00;;;;;;;;;;5105451;28;20198;-61
2022/12/01 02:04:55;;;;;;;16.50;6.43;;;;;;;;;;5105600;28;20233;-60
2022/12/01 02:07:22;;;;;;;16.40;6.43;;;;;;;;;;5101931;28;20232;-61
2022/12/01 02:09:49;;;;;;;12.30;5.27;;;;;;;;;;5106820;28;20232;-61
2022/12/01 02:12:31;;;;;;;14.17;5.83;;;;;;;;;;5103520;28;20225;-61
2022/12/01 02:15:04;;;;;;;14.03;6.00;;;;;;;;;;5104226;28;20270;-61
2022/12/01 02:17:38;;;;;;;14.17;6.63;;;;;;;;;;5104054;28;20286;-61
2022/12/01 02:20:16;;;;;;;11.60;6.20;;;;;;;;;;5104642;28;20659;-61
2022/12/01 02:22:50;;;;;;;12.00;5.50;;;;;;;;;;5103838;28;20197;-61
2022/12/01 02:25:26;;;;;;;16.00;6.97;;;;;;;;;;5105888;28;20656;-61
2022/12/01 02:28:01;;;;;;;13.47;6.57;;;;;;;;;;5103811;28;20575;-60
2022/12/01 02:30:41;;;;;;;16.17;6.60;;;;;;;;;;5103092;28;20221;-61
2022/12/01 02:33:11;;;;;;;16.03;6.43;;;;;;;;;;5104639;28;20202;-60
2022/12/01 02:35:41;;;;;;;16.00;6.77;;;;;;;;;;5106175;28;20210;-60
2022/12/01 02:38:12;;;;;;;12.77;6.17;;;;;;;;;;5105939;28;20198;-61
2022/12/01 02:40:42;;;;;;;17.47;6.93;;;;;;;;;;5102777;28;20278;-61
2022/12/01 02:43:12;;;;;;;16.47;6.87;;;;;;;;;;5103495;28;20944;-61
2022/12/01 02:45:44;;;;;;;14.70;5.90;;;;;;;;;;5102274;28;20210;-60
2022/12/01 02:48:12;;;;;;;18.20;6.90;;;;;;;;;;5102160;28;20210;-61
2022/12/01 02:50:40;;;;;;;14.00;6.33;;;;;;;;;;5102414;28;20218;-60
2022/12/01 02:53:09;;;;;;;13.27;6.40;;;;;;;;;;5103942;28;20660;-60
2022/12/01 02:55:36;;;;;;;13.87;5.53;;;;;;;;;;5105283;28;20796;-60
2022/12/01 02:58:03;;;;;;;13.63;6.37;;;;;;;;;;5106941;28;20190;-60
2022/12/01 03:00:31;;;;;;;15.30;6.17;;;;;;;;;;5103354;28;20573;-60
2022/12/01 03:03:05;;;;;;;16.20;6.73;;;;;;;;;;5106038;28;20201;-61
2022/12/01 03:05:39;;;;;;;14.27;6.17;;;;;;;;;;5106280;28;20629;-61
2022/12/01 03:08:13;;;;;;;18.93;7.27;;;;;;;;;;5104336;28;20236;-61
2022/12/01 03:10:46;;;;;;;20.17;7.50;;;;;;;;;;5105302;28;20594;-60
2022/12/01 03:13:18;;;;;;;14.60;5.80;;;;;;;;;;5105468;28;20974;-61
2022/12/01 03:15:49;;;;;;;17.53;7.77;;;;;;;;;;5108009;28;20209;-60
2022/12/01 03:18:23;;;;;;;13.27;6.43;;;;;;;;;;5110124;28;20198;-60
2022/12/01 03:20:52;;;;;;;13.20;6.40;;;;;;;;;;5109583;28;20312;-61
2022/12/01 03:23:21;;;;;;;14.30;6.23;;;;;;;;;;5106935;27;20205;-61
2022/12/01 03:25:49;;;;;;;13.20;6.93;;;;;;;;;;5110654;28;20210;-60
2022/12/01 03:28:18;;;;;;;15.37;6.83;;;;;;;;;;5109096;28;20670;-60
2022/12/01 03:30:46;;;;;;;24.57;6.87;;;;;;;;;;5109149;28;20240;-61
2022/12/01 03:33:17;;;;;;;11.83;5.67;;;;;;;;;;5104989;28;20206;-61
2022/12/01 03:35:49;;;;;;;11.40;5.53;;;;;;;;;;5108489;28;20214;-61
2022/12/01 03:38:18;;;;;;;11.60;5.97;;;;;;;;;;5108961;28;20212;-61
2022/12/01 03:40:47;;;;;;;11.03;6.20;;;;;;;;;;5104662;28;20204;-61
2022/12/01 03:46:19;;;;;;;14.43;7.17;;;;;;;;;;5105186;28;20321;-61
2022/12/01 03:48:47;;;;;;;16.40;8.40;;;;;;;;;;5110531;28;20938;-60
2022/12/01 03:51:16;;;;;;;16.73;7.13;;;;;;;;;;5104628;28;20222;-60
2022/12/01 03:53:48;;;;;;;13.13;6.37;;;;;;;;;;5109173;28;20208;-60
2022/12/01 03:56:17;;;;;;;13.27;7.00;;;;;;;;;;5108393;28;20217;-60
2022/12/01 03:58:46;;;;;;;16.57;6.47;;;;;;;;;;5108531;28;20204;-60
2022/12/01 04:01:13;;;;;;;17.90;7.40;;;;;;;;;;5109961;28;20570;-61
2022/12/01 04:03:40;;;;;;;15.10;7.33;;;;;;;;;;5107741;28;20674;-61
2022/12/01 04:06:07;;;;;;;14.33;7.03;;;;;;;;;;5108340;28;20245;-61
2022/12/01 04:08:36;;;;;;;13.70;7.03;;;;;;;;;;5109390;28;20265;-61
2022/12/01 04:12:28;;;;;;;15.93;7.20;;;;;;;;;;5106411;28;20323;-61
2022/12/01 04:13:50;;;;;;;13.10;6.83;;;;;;;;;;5104530;28;20206;-61
2022/12/01 04:16:17;;;;;;;11.13;6.20;;;;;;;;;;5108339;28;20686;-61
2022/12/01 04:18:44;;;;;;;12.27;6.47;;;;;;;;;;5109782;28;20210;-61
2022/12/01 04:21:11;;;;;;;13.03;6.37;;;;;;;;;;5106835;28;20208;-60
2022/12/01 04:26:24;;;;;;;12.73;6.57;;;;;;;;;;5108173;28;20367;-60
2022/12/01 04:28:51;;;;;;;15.07;5.93;;;;;;;;;;5108320;28;20422;-60
2022/12/01 04:31:18;;;;;;;14.90;7.10;;;;;;;;;;5106034;28;20217;-61
2022/12/01 04:33:45;;;;;;;13.40;6.57;;;;;;;;;;5104067;28;20279;-60
2022/12/01 04:36:12;;;;;;;10.77;6.47;;;;;;;;;;5101194;28;20203;-60
2022/12/01 04:38:41;;;;;;;12.53;7.27;;;;;;;;;;5101923;28;20665;-61
2022/12/01 04:41:09;;;;;;;14.90;6.27;;;;;;;;;;5107161;28;20196;-61
2022/12/01 04:43:36;;;;;;;13.43;6.73;;;;;;;;;;5105560;28;20233;-61
2022/12/01 04:46:04;;;;;;;13.37;5.80;;;;;;;;;;5106167;28;20209;-61
2022/12/01 04:48:31;;;;;;;15.90;7.20;;;;;;;;;;5107981;28;20233;-60
2022/12/01 04:50:58;;;;;;;14.43;6.77;;;;;;;;;;5108534;28;20220;-60
2022/12/01 04:53:26;;;;;;;13.67;6.40;;;;;;;;;;5107048;28;20209;-60
2022/12/01 04:55:54;;;;;;;15.33;7.27;;;;;;;;;;5101870;28;20223;-60
2022/12/01 04:58:21;;;;;;;17.37;6.80;;;;;;;;;;5107838;28;20197;-60
2022/12/01 05:00:48;;;;;;;13.43;7.27;;;;;;;;;;5103584;28;20198;-60
2022/12/01 05:03:15;;;;;;;15.97;7.17;;;;;;;;;;5104682;28;20197;-60
2022/12/01 05:05:42;;;;;;;18.57;6.70;;;;;;;;;;5105787;28;20679;-60
2022/12/01 05:08:09;;;;;;;14.97;7.07;;;;;;;;;;5106966;28;20205;-60
2022/12/01 05:10:36;;;;;;;15.47;7.37;;;;;;;;;;5105479;27;20331;-61
2022/12/01 05:13:06;;;;;;;11.37;5.97;;;;;;;;;;5106387;28;20228;-60
2022/12/01 05:15:33;;;;;;;9.13;5.63;;;;;;;;;;5103146;28;20204;-60
2022/12/01 05:18:00;;;;;;;18.33;6.10;;;;;;;;;;5107161;28;20201;-61
2022/12/01 05:23:20;;;;;;;10.13;6.13;;;;;;;;;;5056226;28;20296;-60
2022/12/01 05:25:47;;;;;;;13.17;7.40;;;;;;;;;;5104627;28;20275;-61
2022/12/01 05:28:16;;;;;;;10.50;5.80;;;;;;;;;;5106177;28;20707;-61
2022/12/01 05:30:43;;;;;;;12.47;6.20;;;;;;;;;;5103016;28;20217;-61
2022/12/01 05:33:10;;;;;;;10.53;5.47;;;;;;;;;;5099664;28;20262;-60
2022/12/01 05:35:37;;;;;;;13.03;7.03;;;;;;;;;;5102372;28;20221;-61
2022/12/01 05:38:05;;;;;;;13.97;6.13;;;;;;;;;;5105062;28;20206;-61
2022/12/01 05:40:32;;;;;;;14.70;5.93;;;;;;;;;;5107118;28;20209;-60
2022/12/01 05:42:59;;;;;;;11.20;7.03;;;;;;;;;;5104130;28;20198;-61
2022/12/01 05:45:28;;;;;;;16.03;6.57;;;;;;;;;;5105020;28;20212;-61
2022/12/01 05:47:55;;;;;;;8.53;6.00;;;;;;;;;;5094504;28;20197;-61
2022/12/01 05:50:22;;;;;;;12.37;5.50;;;;;;;;;;5089139;28;20259;-61
2022/12/01 05:52:49;;;;;;;12.27;6.17;;;;;;;;;;5101628;28;20220;-61
2022/12/01 05:55:16;;;;;;;10.63;6.27;;;;;;;;;;5106286;28;20231;-61
2022/12/01 05:57:44;;;;;;;18.50;6.27;;;;;;;;;;5094432;28;20204;-61
2022/12/01 06:00:12;;;;;;;13.03;6.27;;;;;;;;;;5089273;28;20889;-61
2022/12/01 06:02:41;;;;;;;14.93;6.97;;;;;;;;;;5093971;28;20259;-61
2022/12/01 06:05:09;;;;;;;12.03;6.43;;;;;;;;;;5103690;28;20202;-61
2022/12/01 06:07:38;;;;;;;21.43;6.83;;;;;;;;;;5096897;28;20223;-61
2022/12/01 06:10:06;;;;;;;10.23;5.43;;;;;;;;;;5107726;28;20961;-64
2022/12/01 06:12:33;;;;;;;10.93;6.07;;;;;;;;;;5104627;28;20571;-63
2022/12/01 06:15:00;;;;;;;12.47;6.10;;;;;;;;;;5106788;28;20203;-60
2022/12/01 06:17:27;;;;;;;14.93;6.37;;;;;;;;;;5108893;28;20201;-61
2022/12/01 06:19:56;;;;;;;11.80;6.00;;;;;;;;;;5097617;28;20245;-61
2022/12/01 06:22:23;;;;;;;10.80;5.33;;;;;;;;;;5089024;28;20207;-61
2022/12/01 06:24:50;;;;;;;11.60;4.97;;;;;;;;;;5088858;28;20217;-61
2022/12/01 06:27:17;;;;;;;13.00;5.40;;;;;;;;;;5097675;28;20217;-63
2022/12/01 06:29:44;;;;;;;13.43;6.10;;;;;;;;;;5103270;28;20207;-62
2022/12/01 06:32:12;;;;;;;14.67;6.20;;;;;;;;;;5090993;28;20718;-62
2022/12/01 06:34:39;;;;;;;14.80;6.50;;;;;;;;;;5107616;28;20288;-62
2022/12/01 06:37:07;;;;;;;9.87;5.63;;;;;;;;;;5086331;28;20594;-63
2022/12/01 06:39:34;;;;;;;11.03;6.17;;;;;;;;;;5087966;28;20211;-64
2022/12/01 06:42:01;;;;;;;9.00;5.50;;;;;;;;;;5093087;28;20202;-63
2022/12/01 06:44:28;;;;;;;16.47;7.47;;;;;;;;;;5105794;28;20198;-63
2022/12/01 06:46:57;;;;;;;16.43;6.30;;;;;;;;;;5095871;28;20200;-63
2022/12/01 06:49:24;;;;;;;15.33;7.20;;;;;;;;;;5105780;28;20202;-62
2022/12/01 06:51:51;;;;;;;14.30;6.23;;;;;;;;;;5108884;27;20220;-62
2022/12/01 06:54:20;;;;;;;18.27;6.70;;;;;;;;;;5091590;28;20205;-62
2022/12/01 06:56:47;;;;;;;9.33;6.43;;;;;;;;;;5091918;28;20219;-62
2022/12/01 06:59:14;;;;;;;17.47;6.70;;;;;;;;;;5108002;28;20215;-60
2022/12/01 07:01:41;;;;;;;17.17;6.83;;;;;;;;;;5111850;28;20286;-62
2022/12/01 07:04:08;;;;;;;14.40;6.13;;;;;;;;;;5107796;28;20202;-62
2022/12/01 07:06:35;;;;;;;13.53;6.17;;;;;;;;;;5091106;28;20260;-62
2022/12/01 07:09:02;;;;;;;13.10;5.53;;;;;;;;;;5097452;28;20217;-61
2022/12/01 07:11:31;;;;;;;14.73;5.97;;;;;;;;;;5094598;27;20228;-61
2022/12/01 07:13:58;;;;;;;14.47;5.67;;;;;;;;;;5106744;28;20249;-62
2022/12/01 07:16:25;;;;;;;8.37;5.30;;;;;;;;;;5093925;28;20684;-62
2022/12/01 07:18:52;;;;;;;9.70;4.90;;;;;;;;;;5102268;28;20198;-61
2022/12/01 07:21:20;;;;;;;16.73;5.97;;;;;;;;;;5089348;28;20201;-62
2022/12/01 07:23:47;;;;;;;13.10;5.97;;;;;;;;;;5089333;28;20210;-62
2022/12/01 07:26:14;;;;;;;10.43;5.50;;;;;;;;;;5089045;28;20210;-61
2022/12/01 07:28:44;;;;;;;8.43;5.50;;;;;;;;;;5092994;28;20622;-62
2022/12/01 07:31:11;;;;;;;8.27;4.87;;;;;;;;;;5090331;28;20271;-62
2022/12/01 07:33:39;;;;;;;7.13;2.83;;;;;;;;;;5091908;28;20210;-62
2022/12/01 07:36:07;;;;;;;12.00;4.37;;;;;;;;;;5101975;28;20205;-62
2022/12/01 07:38:34;;;;;;;3.80;2.10;;;;;;;;;;5107688;28;20220;-62
2022/12/01 07:41:02;;;;;;;12.80;5.63;;;;;;;;;;5099367;28;20205;-62
2022/12/01 07:43:30;;;;;;;7.27;4.57;;;;;;;;;;5100689;28;20532;-62
2022/12/01 07:46:04;;;;;;;9.17;4.83;;;;;;;;;;5106280;28;20230;-62
2022/12/01 07:48:31;;;;;;;8.33;4.60;;;;;;;;;;5097010;28;20202;-62
2022/12/01 07:50:58;;;;;;;4.90;4.40;;;;;;;;;;5101781;28;20228;-62
2022/12/01 07:53:25;;;;;;;8.93;5.23;;;;;;;;;;5096521;28;20205;-61
2022/12/01 07:55:52;;;;;;;9.10;4.23;;;;;;;;;;5091381;28;20243;-63
2022/12/01 07:58:19;;;;;;;8.73;4.00;;;;;;;;;;5102021;28;20203;-62
2022/12/01 08:00:46;;;;;;;16.67;4.50;;;;;;;;;;5105317;28;20213;-61
2022/12/01 08:03:14;;;;;;;9.30;5.77;;;;;;;;;;5101326;28;20202;-62
2022/12/01 08:05:41;;;;;;;6.33;4.40;;;;;;;;;;5105785;28;20206;-62
2022/12/01 08:08:09;;;;;;;9.53;4.33;;;;;;;;;;5104377;28;20675;-61
2022/12/01 08:10:36;;;;;;;5.27;3.57;;;;;;;;;;5107303;28;20208;-62
2022/12/01 08:13:03;;;;;;;11.33;4.83;;;;;;;;;;5092342;28;20302;-62
2022/12/01 08:15:30;;;;;;;8.93;4.50;;;;;;;;;;5096054;28;20193;-61
2022/12/01 08:18:01;;;;;;;8.03;4.07;;;;;;;;;;5093735;28;20212;-62
2022/12/01 08:20:29;;;;;;;9.77;5.27;;;;;;;;;;5095067;28;20203;-62
2022/12/01 08:22:57;;;;;;;7.33;4.60;;;;;;;;;;5107673;28;20872;-62
2022/12/01 08:25:24;;;;;;;8.77;4.80;;;;;;;;;;5088641;28;20679;-62
2022/12/01 08:27:51;;;;;;;8.43;4.43;;;;;;;;;;5088409;28;20754;-62
2022/12/01 08:30:18;;;;;;;7.37;4.27;;;;;;;;;;5087436;28;20720;-62
2022/12/01 08:32:45;;;;;;;8.60;3.93;;;;;;;;;;5089791;28;20238;-61
2022/12/01 08:35:12;;;;;;;8.60;4.63;;;;;;;;;;5092684;28;20202;-62
2022/12/01 08:37:41;;;;;;;6.30;3.27;;;;;;;;;;5088646;28;20206;-62
2022/12/01 08:40:09;;;;;;;10.20;4.50;;;;;;;;;;5088773;28;20317;-63
2022/12/01 08:42:39;;;;;;;11.30;4.77;;;;;;;;;;5087689;28;20280;-62
2022/12/01 08:45:09;;;;;;;5.57;3.53;;;;;;;;;;5104804;28;20213;-61
2022/12/01 08:47:36;;;;;;;7.57;3.87;;;;;;;;;;5087414;28;20202;-62
2022/12/01 08:50:04;;;;;;;8.70;4.93;;;;;;;;;;5088038;28;20199;-64
2022/12/01 08:52:32;;;;;;;7.60;4.43;;;;;;;;;;5091385;28;20230;-62
2022/12/01 08:55:01;;;;;;;12.07;5.43;;;;;;;;;;5106669;28;20224;-62
2022/12/01 08:57:29;;;;;;;8.47;4.67;;;;;;;;;;5105005;28;20202;-62
2022/12/01 08:59:56;;;;;;;11.57;5.40;;;;;;;;;;5090248;28;20638;-67
2022/12/01 09:02:23;;;;;;;9.27;4.77;;;;;;;;;;5088832;28;20195;-61
2022/12/01 09:04:51;;;;;;;7.60;4.03;;;;;;;;;;5092786;28;20753;-61
2022/12/01 09:07:19;;;;;;;7.13;4.03;;;;;;;;;;5097020;28;20229;-64
2022/12/01 09:09:47;;;;;;;8.10;4.10;;;;;;;;;;5102733;28;20253;-64
2022/12/01 09:12:15;;;;;;;10.93;4.53;;;;;;;;;;5104569;28;20839;-65
2022/12/01 09:14:46;;;;;;;9.83;4.73;;;;;;;;;;5095559;28;20698;-64
2022/12/01 09:17:14;;;;;;;8.93;3.83;;;;;;;;;;5092868;28;20195;-67
2022/12/01 09:19:41;;;;;;;10.97;5.17;;;;;;;;;;5092572;28;20203;-65
2022/12/01 09:22:08;;;;;;;9.97;4.97;;;;;;;;;;5098955;28;20196;-64
2022/12/01 09:24:35;;;;;;;10.93;4.90;;;;;;;;;;5092955;28;20219;-65
2022/12/01 09:27:03;;;;;;;12.30;5.17;;;;;;;;;;5106126;27;20209;-65
2022/12/01 09:29:31;;;;;;;7.63;4.73;;;;;;;;;;5093507;28;20206;-64
2022/12/01 09:31:59;;;;;;;7.30;4.00;;;;;;;;;;5102635;28;20224;-62
2022/12/01 09:34:26;;;;;;;3.37;3.00;;;;;;;;;;5107379;28;20228;-63
2022/12/01 09:36:56;;;;;;;9.47;4.77;;;;;;;;;;5092565;28;20228;-62
2022/12/01 09:39:23;;;;;;;9.30;5.10;;;;;;;;;;5087667;28;20259;-62
2022/12/01 09:41:51;;;;;;;8.90;3.37;;;;;;;;;;5087711;28;20216;-62
2022/12/01 09:44:27;;;;;;;6.97;4.23;;;;;;;;;;5097152;28;20205;-62
2022/12/01 09:46:58;;;;;;;9.83;4.73;;;;;;;;;;5093342;28;20209;-62
2022/12/01 09:49:26;;;;;;;6.77;4.40;;;;;;;;;;5102164;28;20197;-62
2022/12/01 09:51:54;;;;;;;9.20;4.63;;;;;;;;;;5103908;28;20232;-62
2022/12/01 09:54:22;;;;;;;12.73;4.80;;;;;;;;;;5106986;28;20677;-61
2022/12/01 09:56:51;;;;;;;8.37;4.37;;;;;;;;;;5106010;28;20204;-62
2022/12/01 09:59:21;;;;;;;10.10;4.57;;;;;;;;;;5102880;28;20193;-62
2022/12/01 10:01:50;;;;;;;9.23;4.80;;;;;;;;;;5091238;28;20257;-63
2022/12/01 10:04:21;;;;;;;12.20;5.73;;;;;;;;;;5090698;28;20695;-62
2022/12/01 10:06:52;;;;;;;7.47;3.70;;;;;;;;;;5099933;28;20240;-62
2022/12/01 10:09:23;;;;;;;6.50;4.23;;;;;;;;;;5087106;28;20271;-63
2022/12/01 10:11:52;;;;;;;6.77;4.57;;;;;;;;;;5086588;28;20232;-63
2022/12/01 10:14:20;;;;;;;7.70;4.23;;;;;;;;;;5095172;28;20219;-63
2022/12/01 10:16:53;;;;;;;7.00;4.33;;;;;;;;;;5106483;28;20300;-63
2022/12/01 10:19:25;;;;;;;6.27;4.03;;;;;;;;;;5104371;28;20214;-63
2022/12/01 10:21:59;;;;;;;6.97;4.30;;;;;;;;;;5088832;28;20204;-64
2022/12/01 10:24:33;;;;;;;6.93;3.93;;;;;;;;;;5093807;28;20197;-63
2022/12/01 10:27:05;;;;;;;7.77;4.53;;;;;;;;;;5101163;28;20197;-63
2022/12/01 10:29:35;;;;;;;6.37;3.63;;;;;;;;;;5110597;28;20212;-62
2022/12/01 10:32:03;;;;;;;8.20;4.47;;;;;;;;;;5108173;28;20225;-63
2022/12/01 10:34:33;;;;;;;10.53;4.50;;;;;;;;;;5100517;28;20205;-63
2022/12/01 10:37:01;;;;;;;9.43;4.93;;;;;;;;;;5092688;28;20744;-63
2022/12/01 10:39:29;;;;;;;6.30;3.47;;;;;;;;;;5092973;28;20547;-63
2022/12/01 10:42:00;;;;;;;6.80;4.27;;;;;;;;;;5108680;28;20664;-63
2022/12/01 10:44:29;;;;;;;7.40;4.13;;;;;;;;;;5099974;28;20679;-63
2022/12/01 10:46:56;;;;;;;4.03;3.53;;;;;;;;;;5105549;28;20213;-63
2022/12/01 10:49:35;;;;;;;6.13;4.40;;;;;;;;;;5109950;27;20208;-63
2022/12/01 10:52:04;;;;;;;7.17;3.47;;;;;;;;;;5095217;28;20221;-62
2022/12/01 10:54:34;;;;;;;1.00;0.97;;;;;;;;;;5090506;28;20683;-64
2022/12/01 10:57:01;;;;;;;4.40;3.13;;;;;;;;;;5092665;28;20581;-62
2022/12/01 10:59:31;;;;;;;3.57;3.00;;;;;;;;;;5092521;28;20256;-61
2022/12/01 11:01:59;;;;;;;5.13;3.73;;;;;;;;;;5091353;28;20559;-62
2022/12/01 11:04:31;;;;;;;6.27;3.80;;;;;;;;;;5094866;28;20661;-63
2022/12/01 11:06:58;;;;;;;6.23;3.63;;;;;;;;;;5104295;28;20245;-63
2022/12/01 11:09:28;;;;;;;3.73;2.13;;;;;;;;;;5091361;28;20205;-63
2022/12/01 11:11:56;;;;;;;5.17;3.50;;;;;;;;;;5095500;28;20218;-61
2022/12/01 11:14:25;;;;;;;10.33;4.03;;;;;;;;;;5092694;28;20210;-62
2022/12/01 11:16:53;;;;;;;6.80;3.93;;;;;;;;;;5097917;28;20223;-62
2022/12/01 11:19:22;;;;;;;6.50;4.20;;;;;;;;;;5108580;28;20258;-62
2022/12/01 11:21:50;;;;;;;2.57;2.37;;;;;;;;;;5107401;28;20236;-62
2022/12/01 11:24:26;;;;;;;5.87;4.00;;;;;;;;;;5090881;28;20541;-62
2022/12/01 11:26:56;;;;;;;4.90;3.33;;;;;;;;;;5105869;28;20205;-62
2022/12/01 11:29:27;;;;;;;7.40;4.40;;;;;;;;;;5099981;28;20671;-63
2022/12/01 11:31:54;;;;;;;8.30;4.07;;;;;;;;;;5089434;28;20224;-63
2022/12/01 11:34:23;;;;;;;7.37;4.33;;;;;;;;;;5089342;28;20230;-63
2022/12/01 11:36:52;;;;;;;11.37;5.53;;;;;;;;;;5089216;28;20210;-63
2022/12/01 11:39:23;;;;;;;9.37;4.30;;;;;;;;;;5089978;28;20688;-62
2022/12/01 11:41:54;;;;;;;11.10;5.40;;;;;;;;;;5089979;28;20255;-63
2022/12/01 11:44:23;;;;;;;6.03;3.50;;;;;;;;;;5099391;28;20867;-62
2022/12/01 11:46:50;;;;;;;7.33;4.20;;;;;;;;;;5108250;28;20220;-62
2022/12/01 11:49:20;;;;;;;11.43;5.27;;;;;;;;;;5105654;28;20213;-62
2022/12/01 11:51:47;;;;;;;9.83;4.93;;;;;;;;;;5103188;28;20659;-64
2022/12/01 11:54:15;;;;;;;16.67;5.63;;;;;;;;;;5108733;28;20582;-63
2022/12/01 11:56:43;;;;;;;9.70;5.10;;;;;;;;;;5108595;28;20217;-63
2022/12/01 11:59:12;;;;;;;7.23;3.63;;;;;;;;;;5104986;27;20265;-63
2022/12/01 12:01:47;;;;;;;7.40;3.77;;;;;;;;;;5098530;28;20202;-63
2022/12/01 12:04:20;;;;;;;5.33;3.13;;;;;;;;;;5103834;28;20556;-63
2022/12/01 12:06:54;;;;;;;7.67;4.67;;;;;;;;;;5101957;28;20351;-62
2022/12/01 12:09:28;;;;;;;4.77;4.00;;;;;;;;;;5092185;28;20206;-62
2022/12/01 12:12:01;;;;;;;10.70;4.60;;;;;;;;;;5094804;28;20290;-62
2022/12/01 12:14:36;;;;;;;10.20;5.50;;;;;;;;;;5097378;28;20200;-62
2022/12/01 12:17:13;;;;;;;14.67;5.83;;;;;;;;;;5093249;28;20220;-66
2022/12/01 12:19:48;;;;;;;9.50;4.77;;;;;;;;;;5103335;28;20260;-63
2022/12/01 12:22:22;;;;;;;16.80;4.73;;;;;;;;;;5099074;28;20214;-65
2022/12/01 12:24:57;;;;;;;6.50;4.50;;;;;;;;;;5107611;28;20220;-64
2022/12/01 12:27:29;;;;;;;12.13;5.27;;;;;;;;;;5110055;28;20209;-63
2022/12/01 12:30:04;;;;;;;10.80;5.53;;;;;;;;;;5107045;28;20771;-62
2022/12/01 12:32:42;;;;;;;6.30;3.23;;;;;;;;;;5089110;28;20226;-64
2022/12/01 12:35:20;;;;;;;6.37;3.80;;;;;;;;;;5090645;28;20205;-65
2022/12/01 12:37:51;;;;;;;11.10;5.70;;;;;;;;;;5093706;28;20272;-65
2022/12/01 12:40:25;;;;;;;9.50;4.43;;;;;;;;;;5095621;28;20198;-63
2022/12/01 12:42:58;;;;;;;12.10;5.30;;;;;;;;;;5100381;28;20225;-64
2022/12/01 12:45:29;;;;;;;7.80;3.43;;;;;;;;;;5093556;28;20210;-64
2022/12/01 12:48:06;;;;;;;2.87;2.03;;;;;;;;;;5098896;28;20695;-64
2022/12/01 12:50:36;;;;;;;3.80;2.23;;;;;;;;;;5108971;28;20802;-63
2022/12/01 12:53:05;;;;;;;10.47;4.67;;;;;;;;;;5104878;28;20307;-63
2022/12/01 12:55:34;;;;;;;10.67;4.73;;;;;;;;;;5102405;28;20595;-64
2022/12/01 12:58:03;;;;;;;1.00;0.83;;;;;;;;;;5106868;28;20588;-64
2022/12/01 13:00:30;;;;;;;6.37;4.50;;;;;;;;;;5089026;28;20595;-64
2022/12/01 13:02:58;;;;;;;10.53;5.17;;;;;;;;;;5099856;28;20208;-64
2022/12/01 13:05:30;;;;;;;7.63;3.97;;;;;;;;;;5088778;28;20206;-64
2022/12/01 13:08:00;;;;;;;8.60;3.67;;;;;;;;;;5095330;28;20212;-64
2022/12/01 13:10:30;;;;;;;7.50;4.40;;;;;;;;;;5096949;28;20694;-64
2022/12/01 13:13:01;;;;;;;6.17;2.93;;;;;;;;;;5094653;28;20232;-64
2022/12/01 13:15:29;;;;;;;4.03;3.13;;;;;;;;;;5099547;28;20202;-64
2022/12/01 13:17:58;;;;;;;13.57;5.43;;;;;;;;;;5103838;28;20212;-63
2022/12/01 13:20:28;;;;;;;4.90;3.20;;;;;;;;;;5094380;28;20209;-66
2022/12/01 13:22:56;;;;;;;3.37;1.60;;;;;;;;;;5093404;28;20199;-65
2022/12/01 13:25:25;;;;;;;5.53;3.50;;;;;;;;;;5098456;28;20209;-64
2022/12/01 13:27:52;;;;;;;11.50;5.13;;;;;;;;;;5090177;28;20214;-65
2022/12/01 13:30:21;;;;;;;8.03;4.50;;;;;;;;;;5088791;28;20285;-65
2022/12/01 13:32:48;;;;;;;7.50;4.07;;;;;;;;;;5099284;27;20253;-65
2022/12/01 13:35:24;;;;;;;4.97;4.07;;;;;;;;;;5100822;28;20218;-64
2022/12/01 13:37:54;;;;;;;7.33;3.87;;;;;;;;;;5102065;28;20409;-64
2022/12/01 13:40:22;;;;;;;10.20;5.30;;;;;;;;;;5106860;28;20208;-64
2022/12/01 13:42:56;;;;;;;8.73;4.47;;;;;;;;;;5104368;28;20875;-65
2022/12/01 13:45:23;;;;;;;6.07;3.03;;;;;;;;;;5108274;28;20218;-65
2022/12/01 13:47:52;;;;;;;9.17;5.07;;;;;;;;;;5107348;28;20285;-64
2022/12/01 13:50:41;;;;;;;6.83;4.50;;;;;;;;;;5108282;28;20212;-64
2022/12/01 13:53:12;;;;;;;9.53;4.67;;;;;;;;;;5095862;28;21033;-65
2022/12/01 13:55:56;;;;;;;7.33;4.77;;;;;;;;;;5091408;28;20241;-64
2022/12/01 13:58:27;;;;;;;7.87;3.83;;;;;;;;;;5102933;28;20217;-62
2022/12/01 14:00:54;;;;;;;2.27;1.67;;;;;;;;;;5122594;27;20308;-62
2022/12/01 14:03:40;;;;;;;7.20;4.17;;;;;;;;;;5107231;27;20213;-63
2022/12/01 14:06:10;;;;;;;3.43;2.63;;;;;;;;;;5107246;28;20241;-63
2022/12/01 14:08:45;;;;;;;12.10;4.57;;;;;;;;;;5107475;28;20304;-62
2022/12/01 14:11:19;;;;;;;5.93;4.00;;;;;;;;;;5106312;28;20281;-63
2022/12/01 14:13:50;;;;;;;10.13;4.43;;;;;;;;;;5107055;28;20240;-63
2022/12/01 14:16:17;;;;;;;7.97;4.57;;;;;;;;;;5104939;28;20242;-64
2022/12/01 14:18:50;;;;;;;9.30;5.20;;;;;;;;;;5103930;28;20212;-63
2022/12/01 14:21:17;;;;;;;6.77;3.10;;;;;;;;;;5087831;28;20221;-64
2022/12/01 14:24:00;;;;;;;6.10;3.80;;;;;;;;;;5095880;28;20614;-64
2022/12/01 14:26:30;;;;;;;3.00;2.00;;;;;;;;;;5108022;28;20225;-64
2022/12/01 14:29:18;;;;;;;8.77;4.87;;;;;;;;;;5105029;28;20594;-64
2022/12/01 14:32:05;;;;;;;9.10;3.83;;;;;;;;;;5107582;28;20220;-62
2022/12/01 14:34:34;;;;;;;4.33;2.73;;;;;;;;;;5091360;28;20248;-62
2022/12/01 14:37:05;;;;;;;5.03;4.07;;;;;;;;;;5088226;28;20543;-62
2022/12/01 14:39:34;;;;;;;9.10;4.93;;;;;;;;;;5087362;28;20213;-62
2022/12/01 14:42:04;;;;;;;10.63;5.00;;;;;;;;;;5095259;28;20205;-63
2022/12/01 14:44:34;;;;;;;4.03;2.57;;;;;;;;;;5094716;28;20202;-61
2022/12/01 14:47:05;;;;;;;0.77;0.77;;;;;;;;;;5100417;28;20205;-61
2022/12/01 14:49:34;;;;;;;3.33;2.57;;;;;;;;;;5088252;28;20309;-62
2022/12/01 14:52:04;;;;;;;6.10;3.83;;;;;;;;;;5094044;28;20209;-59
2022/12/01 14:54:33;;;;;;;2.80;2.43;;;;;;;;;;5107450;28;20241;-59
2022/12/01 14:57:04;;;;;;;6.53;4.03;;;;;;;;;;5106118;28;20542;-60
2022/12/01 14:59:31;;;;;;;6.23;4.50;;;;;;;;;;5097989;28;20197;-61